sensor_id;sensor_type;location;lat;lon;timestamp;P1;durP1;ratioP1;P2;durP2;ratioP2
78686;SDS011;68002;52.310;6.990;2023-06-26T00:00:32;12.97;;;10.30;;
78686;SDS011;68002;52.310;6.990;2023-06-26T00:02:57;12.73;;;11.47;;
78686;SDS011;68002;52.310;6.990;2023-06-26T00:05:22;11.63;;;10.17;;
78686;SDS011;68002;52.310;6.990;2023-06-26T00:07:47;10.97;;;9.77;;
78686;SDS011;68002;52.310;6.990;2023-06-26T00:10:12;11.53;;;10.33;;
78686;SDS011;68002;52.310;6.990;2023-06-26T00:12:38;11.67;;;9.90;;
78686;SDS011;68002;52.310;6.990;2023-06-26T00:15:03;11.47;;;9.27;;
78686;SDS011;68002;52.310;6.990;2023-06-26T00:17:29;11.07;;;9.98;;
78686;SDS011;68002;52.310;6.990;2023-06-26T00:19:54;11.43;;;9.40;;
78686;SDS011;68002;52.310;6.990;2023-06-26T00:22:20;13.00;;;10.93;;
78686;SDS011;68002;52.310;6.990;2023-06-26T00:24:46;12.77;;;9.65;;
78686;SDS011;68002;52.310;6.990;2023-06-26T00:27:11;10.43;;;9.23;;
78686;SDS011;68002;52.310;6.990;2023-06-26T00:29:36;12.00;;;10.70;;
78686;SDS011;68002;52.310;6.990;2023-06-26T00:32:01;11.67;;;9.30;;
78686;SDS011;68002;52.310;6.990;2023-06-26T00:34:27;11.37;;;10.10;;
78686;SDS011;68002;52.310;6.990;2023-06-26T00:36:52;11.43;;;10.05;;
78686;SDS011;68002;52.310;6.990;2023-06-26T00:39:17;11.40;;;9.83;;
78686;SDS011;68002;52.310;6.990;2023-06-26T00:41:42;12.03;;;10.53;;
78686;SDS011;68002;52.310;6.990;2023-06-26T00:44:08;12.07;;;10.37;;
78686;SDS011;68002;52.310;6.990;2023-06-26T00:46:33;10.17;;;8.63;;
78686;SDS011;68002;52.310;6.990;2023-06-26T00:48:59;11.93;;;10.40;;
78686;SDS011;68002;52.310;6.990;2023-06-26T00:51:27;14.45;;;12.27;;
78686;SDS011;68002;52.310;6.990;2023-06-26T00:53:53;14.57;;;11.00;;
78686;SDS011;68002;52.310;6.990;2023-06-26T00:56:19;12.10;;;10.57;;
78686;SDS011;68002;52.310;6.990;2023-06-26T00:58:45;13.68;;;11.68;;
78686;SDS011;68002;52.310;6.990;2023-06-26T01:01:10;14.05;;;11.55;;
78686;SDS011;68002;52.310;6.990;2023-06-26T01:03:36;15.13;;;12.40;;
78686;SDS011;68002;52.310;6.990;2023-06-26T01:06:01;11.13;;;10.03;;
78686;SDS011;68002;52.310;6.990;2023-06-26T01:08:27;11.52;;;9.48;;
78686;SDS011;68002;52.310;6.990;2023-06-26T01:10:52;10.27;;;9.00;;
78686;SDS011;68002;52.310;6.990;2023-06-26T01:13:18;10.85;;;9.27;;
78686;SDS011;68002;52.310;6.990;2023-06-26T01:15:43;13.48;;;10.77;;
78686;SDS011;68002;52.310;6.990;2023-06-26T01:18:09;12.18;;;10.77;;
78686;SDS011;68002;52.310;6.990;2023-06-26T01:20:36;11.85;;;9.80;;
78686;SDS011;68002;52.310;6.990;2023-06-26T01:23:09;13.40;;;10.70;;
78686;SDS011;68002;52.310;6.990;2023-06-26T01:25:37;12.13;;;9.32;;
78686;SDS011;68002;52.310;6.990;2023-06-26T01:28:14;11.82;;;9.40;;
78686;SDS011;68002;52.310;6.990;2023-06-26T01:30:42;10.10;;;8.35;;
78686;SDS011;68002;52.310;6.990;2023-06-26T01:33:09;12.82;;;10.40;;
78686;SDS011;68002;52.310;6.990;2023-06-26T01:35:35;12.73;;;11.02;;
78686;SDS011;68002;52.310;6.990;2023-06-26T01:38:14;10.82;;;9.70;;
78686;SDS011;68002;52.310;6.990;2023-06-26T01:40:41;11.45;;;10.07;;
78686;SDS011;68002;52.310;6.990;2023-06-26T01:43:07;11.97;;;9.93;;
78686;SDS011;68002;52.310;6.990;2023-06-26T01:45:35;14.10;;;11.65;;
78686;SDS011;68002;52.310;6.990;2023-06-26T01:48:01;12.68;;;10.30;;
78686;SDS011;68002;52.310;6.990;2023-06-26T01:50:31;10.13;;;9.02;;
78686;SDS011;68002;52.310;6.990;2023-06-26T01:55:38;13.00;;;11.40;;
78686;SDS011;68002;52.310;6.990;2023-06-26T01:58:08;13.98;;;11.57;;
78686;SDS011;68002;52.310;6.990;2023-06-26T02:00:33;14.07;;;12.10;;
78686;SDS011;68002;52.310;6.990;2023-06-26T02:02:59;13.93;;;11.20;;
78686;SDS011;68002;52.310;6.990;2023-06-26T02:05:25;14.30;;;11.57;;
78686;SDS011;68002;52.310;6.990;2023-06-26T02:07:50;14.30;;;12.20;;
78686;SDS011;68002;52.310;6.990;2023-06-26T02:10:15;13.73;;;11.10;;
78686;SDS011;68002;52.310;6.990;2023-06-26T02:12:40;14.60;;;11.47;;
78686;SDS011;68002;52.310;6.990;2023-06-26T02:15:06;14.53;;;10.83;;
78686;SDS011;68002;52.310;6.990;2023-06-26T02:17:32;12.10;;;10.32;;
78686;SDS011;68002;52.310;6.990;2023-06-26T02:19:57;12.57;;;9.80;;
78686;SDS011;68002;52.310;6.990;2023-06-26T02:22:22;15.60;;;12.43;;
78686;SDS011;68002;52.310;6.990;2023-06-26T02:24:47;15.00;;;13.00;;
78686;SDS011;68002;52.310;6.990;2023-06-26T02:27:13;13.50;;;10.83;;
78686;SDS011;68002;52.310;6.990;2023-06-26T02:29:38;13.43;;;11.67;;
78686;SDS011;68002;52.310;6.990;2023-06-26T02:32:05;13.63;;;12.23;;
78686;SDS011;68002;52.310;6.990;2023-06-26T02:34:30;13.68;;;11.13;;
78686;SDS011;68002;52.310;6.990;2023-06-26T02:36:56;12.93;;;11.17;;
78686;SDS011;68002;52.310;6.990;2023-06-26T02:39:21;13.57;;;11.63;;
78686;SDS011;68002;52.310;6.990;2023-06-26T02:41:47;15.07;;;13.40;;
78686;SDS011;68002;52.310;6.990;2023-06-26T02:44:12;14.57;;;12.98;;
78686;SDS011;68002;52.310;6.990;2023-06-26T02:46:38;13.73;;;10.15;;
78686;SDS011;68002;52.310;6.990;2023-06-26T02:49:03;15.55;;;12.38;;
78686;SDS011;68002;52.310;6.990;2023-06-26T02:51:29;14.95;;;13.27;;
78686;SDS011;68002;52.310;6.990;2023-06-26T02:53:54;14.00;;;10.80;;
78686;SDS011;68002;52.310;6.990;2023-06-26T02:56:19;13.50;;;11.37;;
78686;SDS011;68002;52.310;6.990;2023-06-26T02:58:44;11.30;;;9.10;;
78686;SDS011;68002;52.310;6.990;2023-06-26T03:01:09;15.47;;;12.13;;
78686;SDS011;68002;52.310;6.990;2023-06-26T03:03:35;14.60;;;11.30;;
78686;SDS011;68002;52.310;6.990;2023-06-26T03:06:00;15.43;;;13.63;;
78686;SDS011;68002;52.310;6.990;2023-06-26T03:08:26;15.17;;;10.43;;
78686;SDS011;68002;52.310;6.990;2023-06-26T03:10:51;15.20;;;12.00;;
78686;SDS011;68002;52.310;6.990;2023-06-26T03:13:16;10.37;;;8.30;;
78686;SDS011;68002;52.310;6.990;2023-06-26T03:15:42;12.43;;;9.47;;
78686;SDS011;68002;52.310;6.990;2023-06-26T03:18:07;10.00;;;8.73;;
78686;SDS011;68002;52.310;6.990;2023-06-26T03:20:32;10.40;;;8.27;;
78686;SDS011;68002;52.310;6.990;2023-06-26T03:22:57;10.53;;;8.33;;
78686;SDS011;68002;52.310;6.990;2023-06-26T03:25:22;10.57;;;8.87;;
78686;SDS011;68002;52.310;6.990;2023-06-26T03:27:48;12.80;;;9.83;;
78686;SDS011;68002;52.310;6.990;2023-06-26T03:30:13;11.40;;;9.07;;
78686;SDS011;68002;52.310;6.990;2023-06-26T03:32:38;14.43;;;12.93;;
78686;SDS011;68002;52.310;6.990;2023-06-26T03:35:04;15.30;;;11.17;;
78686;SDS011;68002;52.310;6.990;2023-06-26T03:37:29;11.23;;;8.73;;
78686;SDS011;68002;52.310;6.990;2023-06-26T03:39:54;12.87;;;9.90;;
78686;SDS011;68002;52.310;6.990;2023-06-26T03:42:19;13.93;;;9.63;;
78686;SDS011;68002;52.310;6.990;2023-06-26T03:44:45;13.37;;;9.33;;
78686;SDS011;68002;52.310;6.990;2023-06-26T03:47:10;11.40;;;9.53;;
78686;SDS011;68002;52.310;6.990;2023-06-26T03:49:35;13.33;;;10.17;;
78686;SDS011;68002;52.310;6.990;2023-06-26T03:52:00;11.03;;;8.43;;
78686;SDS011;68002;52.310;6.990;2023-06-26T03:54:26;13.37;;;9.70;;
78686;SDS011;68002;52.310;6.990;2023-06-26T03:56:51;12.77;;;9.40;;
78686;SDS011;68002;52.310;6.990;2023-06-26T03:59:16;12.60;;;10.10;;
78686;SDS011;68002;52.310;6.990;2023-06-26T04:01:42;12.25;;;9.70;;
78686;SDS011;68002;52.310;6.990;2023-06-26T04:04:07;14.40;;;9.30;;
78686;SDS011;68002;52.310;6.990;2023-06-26T04:06:32;13.43;;;9.50;;
78686;SDS011;68002;52.310;6.990;2023-06-26T04:08:57;15.10;;;11.27;;
78686;SDS011;68002;52.310;6.990;2023-06-26T04:11:23;13.70;;;10.63;;
78686;SDS011;68002;52.310;6.990;2023-06-26T04:13:48;14.60;;;10.87;;
78686;SDS011;68002;52.310;6.990;2023-06-26T04:16:13;11.93;;;10.23;;
78686;SDS011;68002;52.310;6.990;2023-06-26T04:18:38;12.13;;;9.50;;
78686;SDS011;68002;52.310;6.990;2023-06-26T04:21:11;15.20;;;10.87;;
78686;SDS011;68002;52.310;6.990;2023-06-26T04:23:37;12.93;;;11.52;;
78686;SDS011;68002;52.310;6.990;2023-06-26T04:26:04;15.63;;;12.10;;
78686;SDS011;68002;52.310;6.990;2023-06-26T04:28:31;13.20;;;11.10;;
78686;SDS011;68002;52.310;6.990;2023-06-26T04:30:57;13.88;;;10.10;;
78686;SDS011;68002;52.310;6.990;2023-06-26T04:33:22;14.43;;;11.27;;
78686;SDS011;68002;52.310;6.990;2023-06-26T04:35:48;13.73;;;10.87;;
78686;SDS011;68002;52.310;6.990;2023-06-26T04:38:13;12.63;;;10.33;;
78686;SDS011;68002;52.310;6.990;2023-06-26T04:40:38;14.83;;;11.00;;
78686;SDS011;68002;52.310;6.990;2023-06-26T04:43:03;13.90;;;9.90;;
78686;SDS011;68002;52.310;6.990;2023-06-26T04:45:29;11.63;;;9.53;;
78686;SDS011;68002;52.310;6.990;2023-06-26T04:47:54;11.73;;;9.83;;
78686;SDS011;68002;52.310;6.990;2023-06-26T04:50:19;11.97;;;9.40;;
78686;SDS011;68002;52.310;6.990;2023-06-26T04:52:44;12.87;;;10.53;;
78686;SDS011;68002;52.310;6.990;2023-06-26T04:55:09;11.93;;;9.20;;
78686;SDS011;68002;52.310;6.990;2023-06-26T04:57:35;12.60;;;9.27;;
78686;SDS011;68002;52.310;6.990;2023-06-26T05:00:00;14.43;;;9.90;;
78686;SDS011;68002;52.310;6.990;2023-06-26T05:02:26;12.55;;;9.60;;
78686;SDS011;68002;52.310;6.990;2023-06-26T05:04:51;12.17;;;9.97;;
78686;SDS011;68002;52.310;6.990;2023-06-26T05:07:16;12.50;;;9.87;;
78686;SDS011;68002;52.310;6.990;2023-06-26T05:09:41;11.93;;;9.17;;
78686;SDS011;68002;52.310;6.990;2023-06-26T05:12:06;13.83;;;9.63;;
78686;SDS011;68002;52.310;6.990;2023-06-26T05:14:32;14.25;;;10.68;;
78686;SDS011;68002;52.310;6.990;2023-06-26T05:16:57;12.70;;;9.57;;
78686;SDS011;68002;52.310;6.990;2023-06-26T05:19:22;12.33;;;9.43;;
78686;SDS011;68002;52.310;6.990;2023-06-26T05:21:48;10.63;;;7.63;;
78686;SDS011;68002;52.310;6.990;2023-06-26T05:24:13;11.07;;;7.50;;
78686;SDS011;68002;52.310;6.990;2023-06-26T05:26:41;10.77;;;7.00;;
78686;SDS011;68002;52.310;6.990;2023-06-26T05:29:06;11.43;;;7.78;;
78686;SDS011;68002;52.310;6.990;2023-06-26T05:31:32;10.05;;;8.35;;
78686;SDS011;68002;52.310;6.990;2023-06-26T05:33:58;10.18;;;7.82;;
78686;SDS011;68002;52.310;6.990;2023-06-26T05:36:27;11.18;;;7.55;;
78686;SDS011;68002;52.310;6.990;2023-06-26T05:38:54;10.70;;;7.50;;
78686;SDS011;68002;52.310;6.990;2023-06-26T05:41:19;11.15;;;7.63;;
78686;SDS011;68002;52.310;6.990;2023-06-26T05:43:45;10.95;;;7.45;;
78686;SDS011;68002;52.310;6.990;2023-06-26T05:46:10;11.90;;;6.77;;
78686;SDS011;68002;52.310;6.990;2023-06-26T05:48:35;8.97;;;6.83;;
78686;SDS011;68002;52.310;6.990;2023-06-26T05:51:01;9.97;;;6.57;;
78686;SDS011;68002;52.310;6.990;2023-06-26T05:53:26;9.98;;;6.95;;
78686;SDS011;68002;52.310;6.990;2023-06-26T05:55:52;9.98;;;7.70;;
78686;SDS011;68002;52.310;6.990;2023-06-26T05:58:17;9.65;;;6.68;;
78686;SDS011;68002;52.310;6.990;2023-06-26T06:00:45;8.65;;;6.80;;
78686;SDS011;68002;52.310;6.990;2023-06-26T06:03:10;8.97;;;5.50;;
78686;SDS011;68002;52.310;6.990;2023-06-26T06:05:35;8.67;;;5.40;;
78686;SDS011;68002;52.310;6.990;2023-06-26T06:08:00;12.03;;;5.80;;
78686;SDS011;68002;52.310;6.990;2023-06-26T06:10:26;11.27;;;6.73;;
78686;SDS011;68002;52.310;6.990;2023-06-26T06:12:51;10.60;;;5.27;;
78686;SDS011;68002;52.310;6.990;2023-06-26T06:15:16;12.67;;;5.80;;
78686;SDS011;68002;52.310;6.990;2023-06-26T06:17:41;10.10;;;5.43;;
78686;SDS011;68002;52.310;6.990;2023-06-26T06:20:07;10.73;;;6.33;;
78686;SDS011;68002;52.310;6.990;2023-06-26T06:22:32;11.15;;;5.32;;
78686;SDS011;68002;52.310;6.990;2023-06-26T06:24:58;11.37;;;5.53;;
78686;SDS011;68002;52.310;6.990;2023-06-26T06:27:23;10.07;;;5.07;;
78686;SDS011;68002;52.310;6.990;2023-06-26T06:29:48;11.77;;;6.60;;
78686;SDS011;68002;52.310;6.990;2023-06-26T06:32:13;7.90;;;5.03;;
78686;SDS011;68002;52.310;6.990;2023-06-26T06:34:38;10.73;;;6.00;;
78686;SDS011;68002;52.310;6.990;2023-06-26T06:37:04;10.40;;;5.30;;
78686;SDS011;68002;52.310;6.990;2023-06-26T06:39:29;9.93;;;5.43;;
78686;SDS011;68002;52.310;6.990;2023-06-26T06:41:54;11.50;;;5.95;;
78686;SDS011;68002;52.310;6.990;2023-06-26T06:44:20;8.77;;;4.67;;
78686;SDS011;68002;52.310;6.990;2023-06-26T06:46:45;10.35;;;5.18;;
78686;SDS011;68002;52.310;6.990;2023-06-26T06:49:11;12.27;;;5.87;;
78686;SDS011;68002;52.310;6.990;2023-06-26T06:51:36;10.23;;;5.13;;
78686;SDS011;68002;52.310;6.990;2023-06-26T06:54:01;7.67;;;5.23;;
78686;SDS011;68002;52.310;6.990;2023-06-26T06:56:26;9.70;;;5.27;;
78686;SDS011;68002;52.310;6.990;2023-06-26T06:58:52;9.53;;;5.03;;
78686;SDS011;68002;52.310;6.990;2023-06-26T07:01:17;11.43;;;5.53;;
78686;SDS011;68002;52.310;6.990;2023-06-26T07:03:42;11.20;;;4.83;;
78686;SDS011;68002;52.310;6.990;2023-06-26T07:06:07;11.90;;;4.43;;
78686;SDS011;68002;52.310;6.990;2023-06-26T07:08:33;8.87;;;4.60;;
78686;SDS011;68002;52.310;6.990;2023-06-26T07:10:58;11.90;;;4.93;;
78686;SDS011;68002;52.310;6.990;2023-06-26T07:13:23;9.10;;;3.93;;
78686;SDS011;68002;52.310;6.990;2023-06-26T07:15:48;10.30;;;4.13;;
78686;SDS011;68002;52.310;6.990;2023-06-26T07:18:14;9.50;;;4.97;;
78686;SDS011;68002;52.310;6.990;2023-06-26T07:20:39;8.00;;;4.10;;
78686;SDS011;68002;52.310;6.990;2023-06-26T07:23:04;9.93;;;4.15;;
78686;SDS011;68002;52.310;6.990;2023-06-26T07:25:30;8.27;;;4.63;;
78686;SDS011;68002;52.310;6.990;2023-06-26T07:27:55;8.50;;;3.93;;
78686;SDS011;68002;52.310;6.990;2023-06-26T07:30:20;8.30;;;3.83;;
78686;SDS011;68002;52.310;6.990;2023-06-26T07:32:45;9.53;;;5.43;;
78686;SDS011;68002;52.310;6.990;2023-06-26T07:35:11;7.27;;;3.90;;
78686;SDS011;68002;52.310;6.990;2023-06-26T07:37:36;11.10;;;4.23;;
78686;SDS011;68002;52.310;6.990;2023-06-26T07:40:01;7.17;;;3.57;;
78686;SDS011;68002;52.310;6.990;2023-06-26T07:42:27;7.55;;;3.83;;
78686;SDS011;68002;52.310;6.990;2023-06-26T07:44:53;6.90;;;2.92;;
78686;SDS011;68002;52.310;6.990;2023-06-26T07:47:19;4.85;;;2.90;;
78686;SDS011;68002;52.310;6.990;2023-06-26T07:49:44;5.30;;;3.13;;
78686;SDS011;68002;52.310;6.990;2023-06-26T07:52:10;4.97;;;3.03;;
78686;SDS011;68002;52.310;6.990;2023-06-26T07:54:36;6.68;;;3.05;;
78686;SDS011;68002;52.310;6.990;2023-06-26T07:57:02;4.35;;;2.00;;
78686;SDS011;68002;52.310;6.990;2023-06-26T07:59:29;4.65;;;1.90;;
78686;SDS011;68002;52.310;6.990;2023-06-26T08:01:55;5.15;;;2.05;;
78686;SDS011;68002;52.310;6.990;2023-06-26T08:04:23;8.73;;;2.17;;
78686;SDS011;68002;52.310;6.990;2023-06-26T08:06:53;3.80;;;1.95;;
78686;SDS011;68002;52.310;6.990;2023-06-26T08:09:20;5.55;;;1.85;;
78686;SDS011;68002;52.310;6.990;2023-06-26T08:11:47;4.97;;;2.35;;
78686;SDS011;68002;52.310;6.990;2023-06-26T08:14:13;3.72;;;1.48;;
78686;SDS011;68002;52.310;6.990;2023-06-26T08:16:39;3.50;;;1.42;;
78686;SDS011;68002;52.310;6.990;2023-06-26T08:19:05;3.72;;;1.73;;
78686;SDS011;68002;52.310;6.990;2023-06-26T08:21:30;4.43;;;1.70;;
78686;SDS011;68002;52.310;6.990;2023-06-26T08:23:55;5.40;;;1.10;;
78686;SDS011;68002;52.310;6.990;2023-06-26T08:26:21;4.13;;;1.20;;
78686;SDS011;68002;52.310;6.990;2023-06-26T08:28:46;5.70;;;2.28;;
78686;SDS011;68002;52.310;6.990;2023-06-26T08:31:12;4.93;;;1.60;;
78686;SDS011;68002;52.310;6.990;2023-06-26T08:33:37;5.10;;;1.83;;
78686;SDS011;68002;52.310;6.990;2023-06-26T08:36:02;5.17;;;1.63;;
78686;SDS011;68002;52.310;6.990;2023-06-26T08:38:28;3.78;;;1.70;;
78686;SDS011;68002;52.310;6.990;2023-06-26T08:40:53;3.03;;;2.27;;
78686;SDS011;68002;52.310;6.990;2023-06-26T08:43:18;4.30;;;1.70;;
78686;SDS011;68002;52.310;6.990;2023-06-26T08:45:43;2.65;;;1.60;;
78686;SDS011;68002;52.310;6.990;2023-06-26T08:48:09;4.53;;;1.70;;
78686;SDS011;68002;52.310;6.990;2023-06-26T08:50:35;3.05;;;1.52;;
78686;SDS011;68002;52.310;6.990;2023-06-26T08:53:04;3.53;;;1.48;;
78686;SDS011;68002;52.310;6.990;2023-06-26T08:55:40;5.18;;;1.33;;
78686;SDS011;68002;52.310;6.990;2023-06-26T08:58:06;3.72;;;1.60;;
78686;SDS011;68002;52.310;6.990;2023-06-26T09:00:31;6.60;;;1.40;;
78686;SDS011;68002;52.310;6.990;2023-06-26T09:02:57;2.72;;;1.30;;
78686;SDS011;68002;52.310;6.990;2023-06-26T09:05:23;4.97;;;1.88;;
78686;SDS011;68002;52.310;6.990;2023-06-26T09:07:50;3.17;;;2.15;;
78686;SDS011;68002;52.310;6.990;2023-06-26T09:10:16;3.17;;;1.27;;
78686;SDS011;68002;52.310;6.990;2023-06-26T09:12:41;3.77;;;1.83;;
78686;SDS011;68002;52.310;6.990;2023-06-26T09:15:13;4.40;;;1.38;;
78686;SDS011;68002;52.310;6.990;2023-06-26T09:17:39;2.70;;;1.23;;
78686;SDS011;68002;52.310;6.990;2023-06-26T09:20:05;4.20;;;2.28;;
78686;SDS011;68002;52.310;6.990;2023-06-26T09:22:33;3.95;;;2.35;;
78686;SDS011;68002;52.310;6.990;2023-06-26T09:25:00;3.97;;;1.75;;
78686;SDS011;68002;52.310;6.990;2023-06-26T09:27:26;4.17;;;1.50;;
78686;SDS011;68002;52.310;6.990;2023-06-26T09:29:51;4.85;;;2.00;;
78686;SDS011;68002;52.310;6.990;2023-06-26T09:32:16;3.93;;;1.60;;
78686;SDS011;68002;52.310;6.990;2023-06-26T09:34:42;4.93;;;1.70;;
78686;SDS011;68002;52.310;6.990;2023-06-26T09:37:08;2.88;;;1.80;;
78686;SDS011;68002;52.310;6.990;2023-06-26T09:39:33;4.90;;;1.90;;
78686;SDS011;68002;52.310;6.990;2023-06-26T09:41:58;3.23;;;1.70;;
78686;SDS011;68002;52.310;6.990;2023-06-26T09:44:24;5.30;;;1.43;;
78686;SDS011;68002;52.310;6.990;2023-06-26T09:46:49;5.17;;;2.37;;
78686;SDS011;68002;52.310;6.990;2023-06-26T09:49:14;3.00;;;1.77;;
78686;SDS011;68002;52.310;6.990;2023-06-26T09:51:40;5.28;;;2.08;;
78686;SDS011;68002;52.310;6.990;2023-06-26T09:54:07;7.15;;;2.38;;
78686;SDS011;68002;52.310;6.990;2023-06-26T09:56:33;4.53;;;2.10;;
78686;SDS011;68002;52.310;6.990;2023-06-26T09:58:59;3.28;;;1.90;;
78686;SDS011;68002;52.310;6.990;2023-06-26T10:01:25;2.90;;;1.83;;
78686;SDS011;68002;52.310;6.990;2023-06-26T10:03:51;5.22;;;2.08;;
78686;SDS011;68002;52.310;6.990;2023-06-26T10:06:20;5.10;;;1.83;;
78686;SDS011;68002;52.310;6.990;2023-06-26T10:08:49;4.45;;;1.73;;
78686;SDS011;68002;52.310;6.990;2023-06-26T10:11:16;3.90;;;1.73;;
78686;SDS011;68002;52.310;6.990;2023-06-26T10:13:44;4.72;;;1.50;;
78686;SDS011;68002;52.310;6.990;2023-06-26T10:16:12;3.95;;;2.35;;
78686;SDS011;68002;52.310;6.990;2023-06-26T10:18:41;5.43;;;1.90;;
78686;SDS011;68002;52.310;6.990;2023-06-26T10:21:08;4.97;;;2.20;;
78686;SDS011;68002;52.310;6.990;2023-06-26T10:23:36;5.05;;;1.55;;
78686;SDS011;68002;52.310;6.990;2023-06-26T10:26:04;4.75;;;1.80;;
78686;SDS011;68002;52.310;6.990;2023-06-26T10:28:31;3.70;;;2.05;;
78686;SDS011;68002;52.310;6.990;2023-06-26T10:30:58;2.92;;;1.65;;
78686;SDS011;68002;52.310;6.990;2023-06-26T10:33:25;4.85;;;1.90;;
78686;SDS011;68002;52.310;6.990;2023-06-26T10:35:51;4.68;;;1.90;;
78686;SDS011;68002;52.310;6.990;2023-06-26T10:38:16;3.23;;;1.97;;
78686;SDS011;68002;52.310;6.990;2023-06-26T10:40:42;4.30;;;1.90;;
78686;SDS011;68002;52.310;6.990;2023-06-26T10:43:12;4.50;;;1.90;;
78686;SDS011;68002;52.310;6.990;2023-06-26T10:45:45;4.10;;;2.25;;
78686;SDS011;68002;52.310;6.990;2023-06-26T10:48:15;5.07;;;2.42;;
78686;SDS011;68002;52.310;6.990;2023-06-26T10:50:40;3.85;;;2.17;;
78686;SDS011;68002;52.310;6.990;2023-06-26T10:55:37;3.80;;;1.80;;
78686;SDS011;68002;52.310;6.990;2023-06-26T10:58:06;3.10;;;1.88;;
78686;SDS011;68002;52.310;6.990;2023-06-26T11:03:37;4.10;;;2.28;;
78686;SDS011;68002;52.310;6.990;2023-06-26T11:06:09;4.43;;;1.88;;
78686;SDS011;68002;52.310;6.990;2023-06-26T11:08:49;4.35;;;2.15;;
78686;SDS011;68002;52.310;6.990;2023-06-26T11:11:17;4.90;;;1.77;;
78686;SDS011;68002;52.310;6.990;2023-06-26T11:13:44;3.60;;;1.60;;
78686;SDS011;68002;52.310;6.990;2023-06-26T11:16:11;4.72;;;1.90;;
78686;SDS011;68002;52.310;6.990;2023-06-26T11:18:36;5.82;;;1.83;;
78686;SDS011;68002;52.310;6.990;2023-06-26T11:23:30;5.72;;;2.03;;
78686;SDS011;68002;52.310;6.990;2023-06-26T11:25:58;3.45;;;1.80;;
78686;SDS011;68002;52.310;6.990;2023-06-26T11:28:38;4.28;;;1.60;;
78686;SDS011;68002;52.310;6.990;2023-06-26T11:31:03;2.97;;;1.77;;
78686;SDS011;68002;52.310;6.990;2023-06-26T11:33:28;4.38;;;2.72;;
78686;SDS011;68002;52.310;6.990;2023-06-26T11:35:54;4.97;;;1.63;;
78686;SDS011;68002;52.310;6.990;2023-06-26T11:38:19;3.57;;;2.00;;
78686;SDS011;68002;52.310;6.990;2023-06-26T11:40:44;5.17;;;1.93;;
78686;SDS011;68002;52.310;6.990;2023-06-26T11:43:09;4.67;;;2.17;;
78686;SDS011;68002;52.310;6.990;2023-06-26T11:45:35;3.47;;;1.83;;
78686;SDS011;68002;52.310;6.990;2023-06-26T11:48:00;5.23;;;1.67;;
78686;SDS011;68002;52.310;6.990;2023-06-26T11:50:26;5.88;;;1.80;;
78686;SDS011;68002;52.310;6.990;2023-06-26T11:52:58;2.55;;;1.38;;
78686;SDS011;68002;52.310;6.990;2023-06-26T11:55:25;3.70;;;1.52;;
78686;SDS011;68002;52.310;6.990;2023-06-26T11:57:54;3.35;;;1.40;;
78686;SDS011;68002;52.310;6.990;2023-06-26T12:00:21;6.40;;;1.58;;
78686;SDS011;68002;52.310;6.990;2023-06-26T12:02:47;4.95;;;1.55;;
78686;SDS011;68002;52.310;6.990;2023-06-26T12:05:13;4.88;;;1.40;;
78686;SDS011;68002;52.310;6.990;2023-06-26T12:07:41;3.30;;;1.33;;
78686;SDS011;68002;52.310;6.990;2023-06-26T12:10:08;3.30;;;2.17;;
78686;SDS011;68002;52.310;6.990;2023-06-26T12:12:35;4.95;;;2.15;;
78686;SDS011;68002;52.310;6.990;2023-06-26T12:15:01;4.20;;;1.42;;
78686;SDS011;68002;52.310;6.990;2023-06-26T12:17:27;6.55;;;1.52;;
78686;SDS011;68002;52.310;6.990;2023-06-26T12:19:52;3.33;;;1.63;;
78686;SDS011;68002;52.310;6.990;2023-06-26T12:22:18;2.20;;;0.93;;
78686;SDS011;68002;52.310;6.990;2023-06-26T12:24:44;3.65;;;1.33;;
78686;SDS011;68002;52.310;6.990;2023-06-26T12:27:11;2.90;;;1.13;;
78686;SDS011;68002;52.310;6.990;2023-06-26T12:29:38;5.18;;;1.23;;
78686;SDS011;68002;52.310;6.990;2023-06-26T12:32:08;2.47;;;1.05;;
78686;SDS011;68002;52.310;6.990;2023-06-26T12:39:27;1.85;;;0.73;;
78686;SDS011;68002;52.310;6.990;2023-06-26T12:41:53;3.87;;;1.10;;
78686;SDS011;68002;52.310;6.990;2023-06-26T12:44:27;3.10;;;1.08;;
78686;SDS011;68002;52.310;6.990;2023-06-26T12:46:55;3.08;;;1.13;;
78686;SDS011;68002;52.310;6.990;2023-06-26T12:49:31;2.38;;;1.00;;
78686;SDS011;68002;52.310;6.990;2023-06-26T12:51:59;3.13;;;1.08;;
78686;SDS011;68002;52.310;6.990;2023-06-26T12:54:25;2.58;;;1.10;;
78686;SDS011;68002;52.310;6.990;2023-06-26T12:56:51;3.60;;;1.03;;
78686;SDS011;68002;52.310;6.990;2023-06-26T12:59:17;2.92;;;1.10;;
78686;SDS011;68002;52.310;6.990;2023-06-26T13:01:42;2.80;;;0.80;;
78686;SDS011;68002;52.310;6.990;2023-06-26T13:04:07;5.30;;;1.27;;
78686;SDS011;68002;52.310;6.990;2023-06-26T13:06:32;3.77;;;0.70;;
78686;SDS011;68002;52.310;6.990;2023-06-26T13:08:57;1.93;;;0.53;;
78686;SDS011;68002;52.310;6.990;2023-06-26T13:11:23;2.63;;;1.27;;
78686;SDS011;68002;52.310;6.990;2023-06-26T13:13:48;4.33;;;1.00;;
78686;SDS011;68002;52.310;6.990;2023-06-26T13:16:13;3.53;;;0.70;;
78686;SDS011;68002;52.310;6.990;2023-06-26T13:18:39;5.00;;;1.70;;
78686;SDS011;68002;52.310;6.990;2023-06-26T13:21:04;3.93;;;1.27;;
78686;SDS011;68002;52.310;6.990;2023-06-26T13:23:29;2.93;;;0.80;;
78686;SDS011;68002;52.310;6.990;2023-06-26T13:25:54;4.97;;;2.17;;
78686;SDS011;68002;52.310;6.990;2023-06-26T13:28:19;2.47;;;0.70;;
78686;SDS011;68002;52.310;6.990;2023-06-26T13:30:45;4.67;;;1.07;;
78686;SDS011;68002;52.310;6.990;2023-06-26T13:33:10;2.77;;;0.73;;
78686;SDS011;68002;52.310;6.990;2023-06-26T13:35:35;2.27;;;0.70;;
78686;SDS011;68002;52.310;6.990;2023-06-26T13:38:00;3.37;;;0.63;;
78686;SDS011;68002;52.310;6.990;2023-06-26T13:40:26;2.23;;;0.60;;
78686;SDS011;68002;52.310;6.990;2023-06-26T13:42:51;5.10;;;0.87;;
78686;SDS011;68002;52.310;6.990;2023-06-26T13:45:16;2.97;;;0.83;;
78686;SDS011;68002;52.310;6.990;2023-06-26T13:47:41;2.87;;;0.80;;
78686;SDS011;68002;52.310;6.990;2023-06-26T13:50:07;5.40;;;1.90;;
78686;SDS011;68002;52.310;6.990;2023-06-26T13:52:34;2.15;;;0.60;;
78686;SDS011;68002;52.310;6.990;2023-06-26T13:54:59;1.90;;;0.53;;
78686;SDS011;68002;52.310;6.990;2023-06-26T13:57:24;2.80;;;0.67;;
78686;SDS011;68002;52.310;6.990;2023-06-26T13:59:50;3.80;;;0.77;;
78686;SDS011;68002;52.310;6.990;2023-06-26T14:02:15;3.23;;;1.50;;
78686;SDS011;68002;52.310;6.990;2023-06-26T14:04:40;3.13;;;0.60;;
78686;SDS011;68002;52.310;6.990;2023-06-26T14:07:05;2.87;;;0.73;;
78686;SDS011;68002;52.310;6.990;2023-06-26T14:09:31;3.63;;;0.70;;
78686;SDS011;68002;52.310;6.990;2023-06-26T14:11:56;3.33;;;0.60;;
78686;SDS011;68002;52.310;6.990;2023-06-26T14:14:21;4.65;;;1.10;;
78686;SDS011;68002;52.310;6.990;2023-06-26T14:16:47;4.10;;;0.60;;
78686;SDS011;68002;52.310;6.990;2023-06-26T14:19:12;3.00;;;0.60;;
78686;SDS011;68002;52.310;6.990;2023-06-26T14:21:37;2.60;;;1.10;;
78686;SDS011;68002;52.310;6.990;2023-06-26T14:24:02;3.10;;;1.03;;
78686;SDS011;68002;52.310;6.990;2023-06-26T14:26:28;3.45;;;0.75;;
78686;SDS011;68002;52.310;6.990;2023-06-26T14:28:53;1.40;;;0.60;;
78686;SDS011;68002;52.310;6.990;2023-06-26T14:31:18;3.03;;;0.60;;
78686;SDS011;68002;52.310;6.990;2023-06-26T14:33:43;2.93;;;1.07;;
78686;SDS011;68002;52.310;6.990;2023-06-26T14:36:09;1.93;;;0.67;;
78686;SDS011;68002;52.310;6.990;2023-06-26T14:38:34;2.70;;;0.40;;
78686;SDS011;68002;52.310;6.990;2023-06-26T14:40:59;1.97;;;0.60;;
78686;SDS011;68002;52.310;6.990;2023-06-26T14:43:24;1.87;;;1.07;;
78686;SDS011;68002;52.310;6.990;2023-06-26T14:45:50;3.07;;;0.90;;